createdAt,value
2023-05-05T00:02:23.058Z,9.80
2023-05-05T00:04:51.105Z,10.00
2023-05-05T00:07:19.121Z,10.00
2023-05-05T00:09:47.111Z,10.00
2023-05-05T00:12:15.144Z,10.00
2023-05-05T00:14:43.159Z,9.80
2023-05-05T00:17:11.264Z,9.60
2023-05-05T00:19:39.372Z,9.50
2023-05-05T00:22:07.486Z,9.40
2023-05-05T00:24:35.489Z,9.50
2023-05-05T00:27:03.524Z,9.40
2023-05-05T00:29:31.878Z,9.30
2023-05-05T00:31:59.910Z,9.30
2023-05-05T00:34:27.927Z,9.20
2023-05-05T00:36:56.070Z,9.30
2023-05-05T00:39:24.124Z,9.30
2023-05-05T00:41:52.268Z,9.40
2023-05-05T00:44:35.868Z,9.50
2023-05-05T00:47:04.309Z,9.60
2023-05-05T00:49:32.533Z,9.70
2023-05-05T00:52:00.940Z,9.80
2023-05-05T00:54:32.102Z,9.70
2023-05-05T00:57:05.460Z,9.60
2023-05-05T00:59:34.655Z,9.40
2023-05-05T01:02:03.023Z,9.30
2023-05-05T01:04:31.148Z,9.30
2023-05-05T01:07:08.186Z,9.20
2023-05-05T01:09:36.249Z,9.20
2023-05-05T01:12:15.097Z,9.10
2023-05-05T01:14:51.421Z,9.20
2023-05-05T01:17:20.750Z,9.20
2023-05-05T01:19:57.890Z,9.30
2023-05-05T01:22:28.431Z,9.40
2023-05-05T01:25:13.689Z,9.40
2023-05-05T01:27:46.079Z,9.50
2023-05-05T01:30:32.451Z,9.50
2023-05-05T01:33:05.241Z,9.40
2023-05-05T01:35:45.132Z,9.20
2023-05-05T01:38:16.208Z,9.10
2023-05-05T01:40:49.481Z,9.00
2023-05-05T01:43:20.153Z,8.90
2023-05-05T01:45:49.867Z,9.00
2023-05-05T01:48:19.049Z,9.00
2023-05-05T01:50:48.117Z,9.10
2023-05-05T01:53:18.788Z,9.10
2023-05-05T01:58:30.287Z,9.20
2023-05-05T02:00:58.885Z,9.20
2023-05-05T02:03:28.069Z,9.00
2023-05-05T02:05:56.713Z,8.90
2023-05-05T02:08:25.743Z,8.90
2023-05-05T02:10:53.992Z,8.90
2023-05-05T02:13:23.189Z,8.80
2023-05-05T02:15:51.949Z,8.80
2023-05-05T02:18:20.553Z,8.80
2023-05-05T02:20:48.735Z,8.90
2023-05-05T02:23:16.935Z,8.90
2023-05-05T02:25:47.056Z,9.10
2023-05-05T02:28:18.362Z,9.20
2023-05-05T02:30:50.301Z,9.30
2023-05-05T02:33:20.393Z,9.30
2023-05-05T02:35:51.698Z,9.30
2023-05-05T02:38:27.099Z,9.30
2023-05-05T02:40:59.394Z,9.30
2023-05-05T02:43:29.103Z,9.40
2023-05-05T02:45:57.645Z,9.40
2023-05-05T02:48:26.191Z,9.30
2023-05-05T02:50:57.618Z,9.20
2023-05-05T02:53:31.998Z,9.10
2023-05-05T02:56:10.116Z,9.10
2023-05-05T02:58:53.168Z,9.20
2023-05-05T03:01:28.104Z,9.30
2023-05-05T03:03:59.327Z,9.40
2023-05-05T03:06:29.712Z,9.40
2023-05-05T03:09:02.115Z,9.40
2023-05-05T03:11:33.424Z,9.20
2023-05-05T03:14:08.549Z,9.00
2023-05-05T03:16:42.156Z,9.00
2023-05-05T03:19:12.598Z,9.10
2023-05-05T03:21:42.489Z,9.20
2023-05-05T03:24:14.631Z,9.20
2023-05-05T03:26:44.416Z,9.20
2023-05-05T03:29:13.039Z,9.20
2023-05-05T03:31:42.472Z,9.10
2023-05-05T03:34:10.690Z,9.20
2023-05-05T03:36:45.022Z,9.20
2023-05-05T03:39:16.076Z,9.00
2023-05-05T03:41:44.432Z,9.10
2023-05-05T03:44:13.940Z,9.10
2023-05-05T03:46:42.856Z,9.10
2023-05-05T03:49:14.217Z,8.90
2023-05-05T03:51:43.901Z,8.80
2023-05-05T03:54:12.034Z,8.80
2023-05-05T03:56:40.198Z,8.80
2023-05-05T03:59:08.243Z,8.80
2023-05-05T04:01:37.015Z,8.70
2023-05-05T04:04:06.177Z,8.70
2023-05-05T04:06:34.428Z,8.70
2023-05-05T04:09:05.329Z,8.80
2023-05-05T04:11:33.392Z,8.80
2023-05-05T04:14:02.135Z,8.90
2023-05-05T04:16:34.711Z,9.00
2023-05-05T04:19:05.595Z,9.00
2023-05-05T04:21:34.698Z,8.90
2023-05-05T04:24:04.178Z,9.00
2023-05-05T04:26:36.249Z,9.20
2023-05-05T04:29:04.408Z,9.30
2023-05-05T04:31:33.599Z,9.50
2023-05-05T04:34:02.143Z,9.60
2023-05-05T04:36:30.404Z,9.60
2023-05-05T04:38:58.609Z,9.70
2023-05-05T04:41:28.926Z,9.80
2023-05-05T04:43:58.695Z,9.90
2023-05-05T04:46:28.120Z,9.80
2023-05-05T04:48:56.242Z,9.80
2023-05-05T04:51:24.861Z,9.80
2023-05-05T04:53:53.280Z,10.00
2023-05-05T04:56:21.347Z,10.10
2023-05-05T04:58:49.457Z,10.20
2023-05-05T05:01:18.182Z,10.20
2023-05-05T05:03:46.294Z,10.20
2023-05-05T05:06:14.533Z,10.30
2023-05-05T05:08:42.673Z,10.40
2023-05-05T05:11:10.734Z,10.50
2023-05-05T05:13:38.758Z,10.60
2023-05-05T05:16:07.419Z,10.70
2023-05-05T05:18:35.514Z,10.80
2023-05-05T05:21:04.735Z,11.10
2023-05-05T05:23:32.839Z,11.30
2023-05-05T05:26:01.151Z,11.50
2023-05-05T05:28:29.255Z,11.70
2023-05-05T05:31:00.276Z,11.80
2023-05-05T05:33:29.066Z,11.90
2023-05-05T05:35:59.061Z,11.90
2023-05-05T05:38:28.154Z,11.90
2023-05-05T05:40:59.703Z,12.00
2023-05-05T05:43:28.020Z,12.00
2023-05-05T05:45:56.157Z,12.10
2023-05-05T05:48:26.408Z,12.20
2023-05-05T05:50:54.607Z,12.30
2023-05-05T05:53:25.732Z,12.40
2023-05-05T05:55:57.865Z,12.60
2023-05-05T05:58:25.910Z,12.80
2023-05-05T06:00:55.589Z,12.90
2023-05-05T06:03:24.308Z,13.10
2023-05-05T06:05:52.532Z,13.20
2023-05-05T06:08:23.047Z,13.20
2023-05-05T06:11:00.027Z,13.30
2023-05-05T06:13:32.798Z,13.40
2023-05-05T06:16:02.133Z,13.70
2023-05-05T06:18:32.641Z,14.10
2023-05-05T06:21:01.861Z,14.30
2023-05-05T06:23:34.248Z,14.40
2023-05-05T06:26:07.720Z,14.60
2023-05-05T06:28:41.367Z,14.90
2023-05-05T06:31:15.279Z,15.00
2023-05-05T06:33:43.788Z,15.00
2023-05-05T06:36:30.010Z,14.90
2023-05-05T06:39:07.368Z,15.00
2023-05-05T06:44:28.937Z,15.50
2023-05-05T06:47:05.253Z,15.60
2023-05-05T06:49:34.209Z,15.90
2023-05-05T06:52:03.120Z,16.10
2023-05-05T06:54:31.799Z,16.40
2023-05-05T06:57:06.652Z,16.60
2023-05-05T06:59:43.399Z,16.80
2023-05-05T07:02:12.176Z,16.80
2023-05-05T07:04:40.703Z,16.90
2023-05-05T07:07:12.182Z,17.10
2023-05-05T07:09:40.992Z,17.10
2023-05-05T07:12:09.577Z,17.20
2023-05-05T07:14:38.536Z,17.40
2023-05-05T07:17:06.990Z,17.60
2023-05-05T07:19:35.826Z,17.90
2023-05-05T07:22:04.326Z,18.00
2023-05-05T07:24:32.807Z,18.00
2023-05-05T07:27:03.487Z,18.30
2023-05-05T07:29:31.991Z,18.50
2023-05-05T07:32:00.556Z,18.70
2023-05-05T07:34:29.589Z,18.80
2023-05-05T07:36:58.489Z,18.90
2023-05-05T07:39:28.663Z,19.00
2023-05-05T07:41:59.516Z,19.20
2023-05-05T07:44:29.328Z,19.30
2023-05-05T07:47:01.338Z,19.50
2023-05-05T07:49:30.268Z,19.80
2023-05-05T07:52:00.482Z,20.00
2023-05-05T07:54:31.216Z,20.20
2023-05-05T07:57:01.495Z,20.30
2023-05-05T07:59:36.335Z,20.40
2023-05-05T08:02:12.191Z,20.60
2023-05-05T08:04:43.807Z,20.80
2023-05-05T08:07:12.274Z,21.30
2023-05-05T08:09:40.370Z,21.50
2023-05-05T08:12:08.711Z,21.70
2023-05-05T08:14:40.341Z,21.80
2023-05-05T08:17:08.578Z,21.90
2023-05-05T08:19:36.716Z,22.00
2023-05-05T08:22:04.913Z,22.20
2023-05-05T08:24:32.917Z,22.20
2023-05-05T08:27:01.104Z,22.30
2023-05-05T08:29:29.188Z,22.50
2023-05-05T08:31:57.611Z,22.50
2023-05-05T08:34:25.744Z,22.40
2023-05-05T08:36:53.769Z,22.30
2023-05-05T08:39:21.980Z,22.50
2023-05-05T08:41:50.312Z,22.50
2023-05-05T08:44:18.455Z,22.90
2023-05-05T08:46:46.899Z,23.30
2023-05-05T08:49:16.245Z,23.40
2023-05-05T08:51:44.524Z,23.40
2023-05-05T08:54:32.050Z,23.70
2023-05-05T08:57:03.170Z,23.70
2023-05-05T08:59:34.259Z,23.50
2023-05-05T09:02:05.174Z,23.40
2023-05-05T09:04:34.006Z,23.40
2023-05-05T09:07:02.528Z,23.60
2023-05-05T09:09:35.581Z,24.10
2023-05-05T09:12:04.254Z,24.10
2023-05-05T09:14:32.466Z,24.60
2023-05-05T09:17:00.600Z,24.60
2023-05-05T09:19:28.672Z,24.10
2023-05-05T09:21:57.098Z,23.90
2023-05-05T09:24:25.314Z,24.00
2023-05-05T09:26:53.404Z,24.00
2023-05-05T09:29:21.685Z,24.40
2023-05-05T09:32:09.782Z,23.90
2023-05-05T09:34:38.465Z,23.60
2023-05-05T09:37:07.309Z,24.10
2023-05-05T09:39:35.520Z,24.40
2023-05-05T09:42:04.290Z,24.40
2023-05-05T09:44:38.815Z,24.30
2023-05-05T09:47:18.183Z,24.20
2023-05-05T09:50:00.163Z,24.30
2023-05-05T09:52:29.266Z,24.10
2023-05-05T09:54:58.383Z,24.20
2023-05-05T09:57:30.919Z,24.70
2023-05-05T09:59:59.771Z,24.30
2023-05-05T10:09:59.006Z,24.40
2023-05-05T10:12:28.001Z,24.40
2023-05-05T10:14:57.308Z,24.10
2023-05-05T10:17:26.224Z,24.30
2023-05-05T10:19:57.820Z,24.60
2023-05-05T10:22:26.336Z,24.90
2023-05-05T10:25:11.453Z,24.90
2023-05-05T10:27:42.468Z,24.90
2023-05-05T10:30:14.258Z,25.00
2023-05-05T10:35:23.440Z,24.90
2023-05-05T10:37:51.981Z,25.00
2023-05-05T10:40:22.871Z,25.20
2023-05-05T10:42:52.162Z,25.30
2023-05-05T10:45:20.278Z,26.00
2023-05-05T10:47:48.888Z,26.40
2023-05-05T10:50:19.313Z,26.40
2023-05-05T10:52:59.705Z,26.30
2023-05-05T10:55:46.102Z,26.00
2023-05-05T10:58:47.113Z,25.90
2023-05-05T11:01:31.894Z,25.80
2023-05-05T11:04:26.191Z,25.80
2023-05-05T11:07:12.684Z,25.70
2023-05-05T11:09:58.903Z,25.80
2023-05-05T11:12:27.050Z,26.30
2023-05-05T11:15:13.743Z,26.60
2023-05-05T11:17:49.051Z,26.90
2023-05-05T11:20:41.103Z,27.00
2023-05-05T11:23:09.356Z,26.70
2023-05-05T11:25:38.323Z,26.60
2023-05-05T11:28:06.998Z,26.70
2023-05-05T11:30:35.639Z,26.60
2023-05-05T11:33:22.502Z,26.40
2023-05-05T11:36:01.819Z,26.10
2023-05-05T11:38:37.928Z,25.70
2023-05-05T11:41:12.272Z,25.40
2023-05-05T11:43:41.498Z,25.30
2023-05-05T11:46:16.239Z,25.30
2023-05-05T11:48:48.304Z,25.20
2023-05-05T11:51:17.553Z,24.90
2023-05-05T11:53:46.715Z,24.70
2023-05-05T11:56:23.529Z,24.70
2023-05-05T11:59:07.651Z,24.50
2023-05-05T12:01:36.283Z,24.20
2023-05-05T12:04:04.756Z,24.10
2023-05-05T12:06:33.981Z,24.10
2023-05-05T12:09:02.562Z,24.10
2023-05-05T12:11:30.764Z,24.10
2023-05-05T12:14:11.828Z,24.20
2023-05-05T12:16:40.256Z,24.10
2023-05-05T12:19:09.295Z,24.10
2023-05-05T12:21:37.503Z,23.90
2023-05-05T12:24:05.736Z,23.80
2023-05-05T12:26:33.871Z,23.60
2023-05-05T12:29:02.240Z,23.40
2023-05-05T12:31:37.256Z,23.40
2023-05-05T12:34:06.201Z,23.40
2023-05-05T12:36:34.934Z,23.70
2023-05-05T12:39:03.091Z,23.80
2023-05-05T12:41:31.146Z,24.00
2023-05-05T12:44:00.196Z,23.90
2023-05-05T12:46:30.827Z,23.80
2023-05-05T12:49:08.391Z,23.70
2023-05-05T12:51:37.652Z,23.60
2023-05-05T12:54:12.162Z,23.60
2023-05-05T12:56:41.975Z,23.60
2023-05-05T12:59:13.885Z,23.60
2023-05-05T13:01:57.920Z,23.60
2023-05-05T13:04:27.052Z,23.50
2023-05-05T13:07:14.668Z,23.50
2023-05-05T13:09:43.052Z,23.60
2023-05-05T13:12:13.690Z,23.70
2023-05-05T13:14:42.132Z,23.70
2023-05-05T13:17:10.521Z,23.60
2023-05-05T13:19:43.240Z,23.50
2023-05-05T13:22:11.688Z,23.50
2023-05-05T13:24:50.801Z,23.50
2023-05-05T13:27:20.336Z,23.40
2023-05-05T13:29:48.450Z,23.40
2023-05-05T13:32:16.696Z,23.30
2023-05-05T13:34:45.446Z,23.00
2023-05-05T13:37:13.695Z,22.90
2023-05-05T13:39:41.710Z,22.80
2023-05-05T13:42:09.996Z,22.70
2023-05-05T13:44:38.259Z,22.70
2023-05-05T13:47:09.965Z,22.70
2023-05-05T13:49:40.714Z,22.70
2023-05-05T13:52:11.771Z,22.70
2023-05-05T13:54:40.411Z,22.50
2023-05-05T13:57:09.394Z,22.30
2023-05-05T13:59:37.625Z,22.20
2023-05-05T14:02:05.797Z,22.10
2023-05-05T14:04:33.949Z,22.00
2023-05-05T14:07:02.412Z,21.90
2023-05-05T14:09:30.600Z,21.90
2023-05-05T14:11:58.937Z,21.90
2023-05-05T14:14:27.013Z,21.80
2023-05-05T14:16:55.302Z,21.70
2023-05-05T14:19:23.521Z,21.80
2023-05-05T14:21:51.686Z,21.60
2023-05-05T14:24:19.744Z,21.30
2023-05-05T14:26:48.071Z,20.90
2023-05-05T14:31:57.043Z,20.50
2023-05-05T14:34:25.135Z,20.30
2023-05-05T14:36:53.238Z,20.40
2023-05-05T14:39:21.237Z,20.60
2023-05-05T14:41:49.285Z,20.50
2023-05-05T14:44:17.325Z,20.60
2023-05-05T14:46:46.338Z,20.70
2023-05-05T14:49:14.893Z,20.80
2023-05-05T14:51:44.019Z,20.90
2023-05-05T14:54:24.260Z,21.00
2023-05-05T14:56:55.261Z,21.10
2023-05-05T14:59:30.736Z,21.10
2023-05-05T15:02:01.858Z,21.10
2023-05-05T15:04:30.000Z,21.10
2023-05-05T15:06:58.226Z,21.20
2023-05-05T15:09:26.378Z,21.40
2023-05-05T15:11:54.435Z,21.50
2023-05-05T15:14:22.528Z,21.70
2023-05-05T15:16:50.590Z,21.90
2023-05-05T15:19:18.828Z,22.00
2023-05-05T15:21:46.958Z,22.30
2023-05-05T15:24:14.993Z,22.40
2023-05-05T15:26:43.249Z,22.40
2023-05-05T15:29:11.248Z,22.30
2023-05-05T15:31:39.556Z,22.30
2023-05-05T15:34:07.695Z,22.20
2023-05-05T15:36:35.701Z,22.10
2023-05-05T15:39:03.865Z,22.00
2023-05-05T15:41:32.216Z,21.90
2023-05-05T15:44:00.470Z,21.90
2023-05-05T15:46:28.530Z,21.80
2023-05-05T15:48:56.732Z,21.70
2023-05-05T15:51:24.857Z,21.60
2023-05-05T15:53:54.502Z,21.50
2023-05-05T15:56:22.638Z,21.40
2023-05-05T15:58:50.725Z,21.30
2023-05-05T16:01:18.908Z,21.20
2023-05-05T16:03:47.254Z,21.10
2023-05-05T16:06:15.488Z,21.00
2023-05-05T16:08:43.555Z,20.90
2023-05-05T16:11:11.685Z,20.80
2023-05-05T16:13:40.472Z,20.60
2023-05-05T16:16:08.612Z,20.50
2023-05-05T16:18:36.638Z,20.50
2023-05-05T16:21:05.157Z,20.40
2023-05-05T16:23:33.285Z,20.10
2023-05-05T16:26:01.625Z,19.90
2023-05-05T16:28:29.776Z,19.90
2023-05-05T16:30:57.978Z,20.00
2023-05-05T16:33:26.241Z,20.00
2023-05-05T16:35:54.386Z,20.00
2023-05-05T16:38:22.683Z,19.80
2023-05-05T16:40:50.752Z,19.60
2023-05-05T16:43:19.993Z,19.60
2023-05-05T16:45:48.114Z,19.60
2023-05-05T16:48:16.197Z,19.70
2023-05-05T16:50:44.339Z,19.80
2023-05-05T16:53:12.696Z,19.70
2023-05-05T16:55:40.819Z,19.60
2023-05-05T16:58:09.018Z,19.50
2023-05-05T17:00:37.339Z,19.50
2023-05-05T17:03:05.459Z,19.30
2023-05-05T17:05:33.571Z,19.30
2023-05-05T17:08:13.110Z,19.30
2023-05-05T17:10:42.748Z,19.20
2023-05-05T17:13:11.144Z,19.30
2023-05-05T17:15:39.500Z,19.20
2023-05-05T17:18:08.560Z,19.20
2023-05-05T17:20:37.683Z,19.20
2023-05-05T17:23:06.413Z,19.10
2023-05-05T17:25:35.709Z,19.10
2023-05-05T17:28:04.075Z,19.10
2023-05-05T17:30:32.188Z,19.10
2023-05-05T17:33:00.246Z,19.00
2023-05-05T17:35:28.389Z,18.70
2023-05-05T17:37:56.760Z,18.50
2023-05-05T17:40:24.897Z,18.40
2023-05-05T17:42:53.015Z,18.50
2023-05-05T17:45:21.170Z,18.60
2023-05-05T17:47:49.257Z,18.70
2023-05-05T17:50:17.443Z,18.70
2023-05-05T17:52:46.371Z,18.80
2023-05-05T17:55:14.462Z,18.80
2023-05-05T17:57:42.538Z,18.70
2023-05-05T18:00:11.030Z,18.70
2023-05-05T18:02:42.267Z,18.70
2023-05-05T18:05:11.279Z,18.60
2023-05-05T18:07:40.023Z,18.60
2023-05-05T18:10:08.526Z,18.50
2023-05-05T18:12:36.858Z,18.50
2023-05-05T18:15:05.351Z,18.50
2023-05-05T18:17:33.454Z,18.50
2023-05-05T18:20:01.560Z,18.40
2023-05-05T18:22:29.694Z,18.40
2023-05-05T18:25:00.348Z,18.40
2023-05-05T18:27:29.553Z,18.40
2023-05-05T18:29:57.634Z,18.30
2023-05-05T18:32:25.799Z,18.20
2023-05-05T18:34:53.915Z,17.90
2023-05-05T18:37:21.974Z,17.70
2023-05-05T18:39:50.486Z,17.60
2023-05-05T18:42:18.549Z,17.60
2023-05-05T18:44:46.947Z,17.70
2023-05-05T18:47:14.996Z,17.60
2023-05-05T18:49:43.249Z,17.40
2023-05-05T18:52:11.269Z,17.30
2023-05-05T18:57:19.922Z,17.10
2023-05-05T18:59:48.034Z,17.00
2023-05-05T19:02:16.205Z,16.90
2023-05-05T19:04:44.242Z,16.80
2023-05-05T19:07:18.379Z,16.70
2023-05-05T19:09:52.090Z,16.70
2023-05-05T19:12:20.069Z,16.70
2023-05-05T19:14:48.089Z,16.80
2023-05-05T19:17:16.071Z,16.80
2023-05-05T19:19:44.144Z,16.80
2023-05-05T19:22:12.320Z,16.80
2023-05-05T19:24:40.415Z,16.80
2023-05-05T19:27:09.413Z,16.80
2023-05-05T19:29:37.476Z,16.80
2023-05-05T19:32:05.631Z,16.70
2023-05-05T19:34:34.383Z,16.50
2023-05-05T19:37:02.392Z,16.30
2023-05-05T19:39:30.408Z,16.10
2023-05-05T19:41:58.418Z,16.00
2023-05-05T19:44:26.438Z,16.00
2023-05-05T19:46:54.493Z,16.00
2023-05-05T19:49:22.533Z,15.90
2023-05-05T19:51:51.552Z,15.90
2023-05-05T19:54:19.589Z,15.70
2023-05-05T19:56:47.663Z,15.60
2023-05-05T19:59:15.782Z,15.60
2023-05-05T20:01:43.951Z,15.50
2023-05-05T20:04:12.110Z,15.50
2023-05-05T20:06:40.166Z,15.50
2023-05-05T20:09:08.204Z,15.50
2023-05-05T20:11:36.977Z,15.50
2023-05-05T20:14:05.005Z,15.60
2023-05-05T20:16:33.088Z,15.60
2023-05-05T20:19:01.261Z,15.60
2023-05-05T20:21:30.313Z,15.60
2023-05-05T20:23:58.310Z,15.60
2023-05-05T20:26:27.219Z,15.60
2023-05-05T20:28:55.321Z,15.60
2023-05-05T20:31:23.516Z,15.70
2023-05-05T20:33:51.592Z,15.60
2023-05-05T20:36:19.793Z,15.60
2023-05-05T20:38:47.855Z,15.70
2023-05-05T20:41:15.914Z,15.70
2023-05-05T20:43:44.050Z,15.60
2023-05-05T20:46:13.412Z,15.60
2023-05-05T20:48:43.018Z,15.60
2023-05-05T20:51:11.383Z,15.70
2023-05-05T20:53:39.432Z,15.70
2023-05-05T20:56:09.141Z,15.60
2023-05-05T20:58:37.462Z,15.60
2023-05-05T21:01:05.545Z,15.60
2023-05-05T21:03:33.637Z,15.50
2023-05-05T21:06:10.136Z,15.50
2023-05-05T21:08:41.294Z,15.50
2023-05-05T21:11:10.022Z,15.50
2023-05-05T21:13:38.132Z,15.40
2023-05-05T21:16:06.535Z,15.20
2023-05-05T21:18:34.627Z,15.10
2023-05-05T21:21:02.782Z,15.10
2023-05-05T21:23:31.191Z,15.10
2023-05-05T21:26:00.363Z,15.20
2023-05-05T21:28:28.426Z,15.20
2023-05-05T21:31:19.939Z,15.20
2023-05-05T21:33:44.569Z,15.10
2023-05-05T21:36:12.664Z,15.10
2023-05-05T21:38:40.807Z,15.00
2023-05-05T21:41:08.847Z,15.00
2023-05-05T21:43:36.970Z,15.00
2023-05-05T21:46:06.438Z,15.10
2023-05-05T21:48:34.541Z,15.10
2023-05-05T21:51:02.669Z,15.10
2023-05-05T21:53:30.830Z,15.10
2023-05-05T21:55:58.923Z,15.10
2023-05-05T21:58:27.022Z,15.00
2023-05-05T22:00:55.102Z,15.00
2023-05-05T22:03:23.292Z,15.00
2023-05-05T22:05:51.564Z,14.90
2023-05-05T22:08:20.619Z,14.90
2023-05-05T22:10:48.883Z,14.90
2023-05-05T22:13:17.168Z,14.80
2023-05-05T22:15:47.088Z,14.80
2023-05-05T22:18:16.073Z,14.80
2023-05-05T22:20:49.056Z,14.80
2023-05-05T22:23:20.040Z,14.70
2023-05-05T22:25:48.147Z,14.70
2023-05-05T22:28:16.217Z,14.80
2023-05-05T22:30:44.379Z,14.80
2023-05-05T22:33:12.410Z,14.90
2023-05-05T22:35:40.568Z,14.80
2023-05-05T22:38:08.597Z,14.70
2023-05-05T22:40:37.235Z,14.80
2023-05-05T22:43:05.281Z,14.80
2023-05-05T22:45:33.404Z,14.80
2023-05-05T22:48:02.123Z,14.60
2023-05-05T22:50:30.236Z,14.60
2023-05-05T22:52:58.266Z,14.60
2023-05-05T22:55:26.370Z,14.60
2023-05-05T22:57:54.395Z,14.60
2023-05-05T23:00:22.432Z,14.60
2023-05-05T23:02:50.554Z,14.60
2023-05-05T23:05:18.594Z,14.60
2023-05-05T23:07:46.641Z,14.60
2023-05-05T23:10:14.721Z,14.60
2023-05-05T23:12:42.788Z,14.60
2023-05-05T23:15:11.400Z,14.50
2023-05-05T23:17:39.733Z,14.60
2023-05-05T23:20:10.755Z,14.60
2023-05-05T23:22:38.931Z,14.60
2023-05-05T23:25:07.390Z,14.70
2023-05-05T23:27:35.696Z,14.70
2023-05-05T23:30:03.754Z,14.70
2023-05-05T23:32:31.931Z,14.70
2023-05-05T23:34:59.985Z,14.60
2023-05-05T23:37:28.007Z,14.60
2023-05-05T23:39:56.040Z,14.60
2023-05-05T23:42:24.146Z,14.60
2023-05-05T23:44:52.231Z,14.60
2023-05-05T23:47:20.263Z,14.60
2023-05-05T23:49:48.368Z,14.60
2023-05-05T23:52:16.574Z,14.60
2023-05-05T23:54:45.869Z,14.60
2023-05-05T23:57:13.933Z,14.60
2023-05-05T23:59:42.215Z,14.40
